sensor_id;sensor_type;location;lat;lon;timestamp;P1;durP1;ratioP1;P2;durP2;ratioP2
64483;SDS011;50862;51.642;7.964;2022-07-12T00:01:00;0.50;;;0.50;;
64483;SDS011;50862;51.642;7.964;2022-07-12T00:03:28;0.63;;;0.63;;
64483;SDS011;50862;51.642;7.964;2022-07-12T00:05:57;0.60;;;0.60;;
64483;SDS011;50862;51.642;7.964;2022-07-12T00:08:27;0.68;;;0.65;;
64483;SDS011;50862;51.642;7.964;2022-07-12T00:10:55;0.60;;;0.60;;
64483;SDS011;50862;51.642;7.964;2022-07-12T00:13:24;0.70;;;0.70;;
64483;SDS011;50862;51.642;7.964;2022-07-12T00:15:52;0.43;;;0.43;;
64483;SDS011;50862;51.642;7.964;2022-07-12T00:18:21;0.68;;;0.63;;
64483;SDS011;50862;51.642;7.964;2022-07-12T00:20:49;0.40;;;0.40;;
64483;SDS011;50862;51.642;7.964;2022-07-12T00:23:18;0.45;;;0.45;;
64483;SDS011;50862;51.642;7.964;2022-07-12T00:25:47;0.40;;;0.40;;
64483;SDS011;50862;51.642;7.964;2022-07-12T00:28:16;0.75;;;0.43;;
64483;SDS011;50862;51.642;7.964;2022-07-12T00:30:44;0.60;;;0.60;;
64483;SDS011;50862;51.642;7.964;2022-07-12T00:33:13;0.40;;;0.40;;
64483;SDS011;50862;51.642;7.964;2022-07-12T00:35:41;0.30;;;0.30;;
64483;SDS011;50862;51.642;7.964;2022-07-12T00:38:09;0.20;;;0.20;;
64483;SDS011;50862;51.642;7.964;2022-07-12T00:40:38;0.40;;;0.40;;
64483;SDS011;50862;51.642;7.964;2022-07-12T00:43:08;0.50;;;0.50;;
64483;SDS011;50862;51.642;7.964;2022-07-12T00:45:36;0.25;;;0.25;;
64483;SDS011;50862;51.642;7.964;2022-07-12T00:48:05;0.63;;;0.47;;
64483;SDS011;50862;51.642;7.964;2022-07-12T00:50:33;0.20;;;0.20;;
64483;SDS011;50862;51.642;7.964;2022-07-12T00:53:02;0.40;;;0.40;;
64483;SDS011;50862;51.642;7.964;2022-07-12T00:55:32;0.30;;;0.30;;
64483;SDS011;50862;51.642;7.964;2022-07-12T00:58:00;0.32;;;0.32;;
64483;SDS011;50862;51.642;7.964;2022-07-12T01:00:30;0.30;;;0.30;;
64483;SDS011;50862;51.642;7.964;2022-07-12T01:03:01;0.52;;;0.52;;
64483;SDS011;50862;51.642;7.964;2022-07-12T01:05:30;0.82;;;0.60;;
64483;SDS011;50862;51.642;7.964;2022-07-12T01:07:58;1.35;;;0.60;;
64483;SDS011;50862;51.642;7.964;2022-07-12T01:10:27;2.38;;;0.60;;
64483;SDS011;50862;51.642;7.964;2022-07-12T01:12:57;0.77;;;0.70;;
64483;SDS011;50862;51.642;7.964;2022-07-12T01:15:25;0.30;;;0.30;;
64483;SDS011;50862;51.642;7.964;2022-07-12T01:17:57;0.30;;;0.30;;
64483;SDS011;50862;51.642;7.964;2022-07-12T01:20:27;0.60;;;0.60;;
64483;SDS011;50862;51.642;7.964;2022-07-12T01:22:58;0.47;;;0.47;;
64483;SDS011;50862;51.642;7.964;2022-07-12T01:25:27;0.50;;;0.50;;
64483;SDS011;50862;51.642;7.964;2022-07-12T01:27:55;0.40;;;0.40;;
64483;SDS011;50862;51.642;7.964;2022-07-12T01:30:24;0.40;;;0.40;;
64483;SDS011;50862;51.642;7.964;2022-07-12T01:32:53;0.40;;;0.40;;
64483;SDS011;50862;51.642;7.964;2022-07-12T01:35:22;0.43;;;0.43;;
64483;SDS011;50862;51.642;7.964;2022-07-12T01:37:51;0.60;;;0.60;;
64483;SDS011;50862;51.642;7.964;2022-07-12T01:40:21;0.40;;;0.40;;
64483;SDS011;50862;51.642;7.964;2022-07-12T01:42:50;0.30;;;0.30;;
64483;SDS011;50862;51.642;7.964;2022-07-12T01:45:19;0.30;;;0.30;;
64483;SDS011;50862;51.642;7.964;2022-07-12T01:47:48;0.40;;;0.40;;
64483;SDS011;50862;51.642;7.964;2022-07-12T01:50:16;0.40;;;0.40;;
64483;SDS011;50862;51.642;7.964;2022-07-12T01:52:44;0.63;;;0.20;;
64483;SDS011;50862;51.642;7.964;2022-07-12T01:55:13;0.20;;;0.20;;
64483;SDS011;50862;51.642;7.964;2022-07-12T01:57:42;0.30;;;0.30;;
64483;SDS011;50862;51.642;7.964;2022-07-12T02:00:12;0.30;;;0.30;;
64483;SDS011;50862;51.642;7.964;2022-07-12T02:02:41;0.82;;;0.82;;
64483;SDS011;50862;51.642;7.964;2022-07-12T02:05:11;1.57;;;0.87;;
64483;SDS011;50862;51.642;7.964;2022-07-12T02:07:40;3.80;;;1.30;;
64483;SDS011;50862;51.642;7.964;2022-07-12T02:10:09;1.20;;;1.10;;
64483;SDS011;50862;51.642;7.964;2022-07-12T02:12:37;1.00;;;1.00;;
64483;SDS011;50862;51.642;7.964;2022-07-12T02:15:07;1.30;;;1.20;;
64483;SDS011;50862;51.642;7.964;2022-07-12T02:17:36;0.90;;;0.90;;
64483;SDS011;50862;51.642;7.964;2022-07-12T02:20:05;0.80;;;0.77;;
64483;SDS011;50862;51.642;7.964;2022-07-12T02:22:33;0.90;;;0.90;;
64483;SDS011;50862;51.642;7.964;2022-07-12T02:25:02;0.80;;;0.80;;
64483;SDS011;50862;51.642;7.964;2022-07-12T02:27:30;2.67;;;0.77;;
64483;SDS011;50862;51.642;7.964;2022-07-12T02:29:59;1.17;;;1.13;;
64483;SDS011;50862;51.642;7.964;2022-07-12T02:32:28;1.00;;;0.80;;
64483;SDS011;50862;51.642;7.964;2022-07-12T02:34:56;2.83;;;0.90;;
64483;SDS011;50862;51.642;7.964;2022-07-12T02:37:24;0.90;;;0.73;;
64483;SDS011;50862;51.642;7.964;2022-07-12T02:39:53;1.70;;;0.83;;
64483;SDS011;50862;51.642;7.964;2022-07-12T02:42:41;0.73;;;0.73;;
64483;SDS011;50862;51.642;7.964;2022-07-12T02:45:10;0.70;;;0.70;;
64483;SDS011;50862;51.642;7.964;2022-07-12T02:47:40;5.80;;;0.90;;
64483;SDS011;50862;51.642;7.964;2022-07-12T02:50:08;2.30;;;1.07;;
64483;SDS011;50862;51.642;7.964;2022-07-12T02:52:36;0.70;;;0.70;;
64483;SDS011;50862;51.642;7.964;2022-07-12T02:55:05;0.60;;;0.60;;
64483;SDS011;50862;51.642;7.964;2022-07-12T02:57:33;0.50;;;0.50;;
64483;SDS011;50862;51.642;7.964;2022-07-12T03:00:02;0.40;;;0.40;;
64483;SDS011;50862;51.642;7.964;2022-07-12T03:02:32;0.30;;;0.30;;
64483;SDS011;50862;51.642;7.964;2022-07-12T03:05:02;0.40;;;0.40;;
64483;SDS011;50862;51.642;7.964;2022-07-12T03:07:31;0.40;;;0.40;;
64483;SDS011;50862;51.642;7.964;2022-07-12T03:09:59;1.60;;;0.57;;
64483;SDS011;50862;51.642;7.964;2022-07-12T03:12:28;0.70;;;0.70;;
64483;SDS011;50862;51.642;7.964;2022-07-12T03:14:56;0.87;;;0.87;;
64483;SDS011;50862;51.642;7.964;2022-07-12T03:17:24;5.70;;;1.23;;
64483;SDS011;50862;51.642;7.964;2022-07-12T03:19:53;1.10;;;1.00;;
64483;SDS011;50862;51.642;7.964;2022-07-12T03:22:22;1.23;;;1.20;;
64483;SDS011;50862;51.642;7.964;2022-07-12T03:24:50;2.37;;;1.07;;
64483;SDS011;50862;51.642;7.964;2022-07-12T03:27:19;1.70;;;1.60;;
64483;SDS011;50862;51.642;7.964;2022-07-12T03:29:47;1.50;;;1.40;;
64483;SDS011;50862;51.642;7.964;2022-07-12T03:32:16;3.10;;;1.20;;
64483;SDS011;50862;51.642;7.964;2022-07-12T03:34:45;1.00;;;0.97;;
64483;SDS011;50862;51.642;7.964;2022-07-12T03:37:14;1.73;;;1.63;;
64483;SDS011;50862;51.642;7.964;2022-07-12T03:39:44;1.83;;;1.40;;
64483;SDS011;50862;51.642;7.964;2022-07-12T03:42:12;1.40;;;1.30;;
64483;SDS011;50862;51.642;7.964;2022-07-12T03:44:40;3.43;;;1.00;;
64483;SDS011;50862;51.642;7.964;2022-07-12T03:47:09;1.00;;;1.00;;
64483;SDS011;50862;51.642;7.964;2022-07-12T03:49:38;1.50;;;1.20;;
64483;SDS011;50862;51.642;7.964;2022-07-12T03:52:06;4.60;;;1.40;;
64483;SDS011;50862;51.642;7.964;2022-07-12T03:54:35;1.10;;;1.00;;
64483;SDS011;50862;51.642;7.964;2022-07-12T03:57:05;1.60;;;1.13;;
64483;SDS011;50862;51.642;7.964;2022-07-12T03:59:42;4.93;;;1.70;;
64483;SDS011;50862;51.642;7.964;2022-07-12T04:02:11;2.33;;;1.40;;
64483;SDS011;50862;51.642;7.964;2022-07-12T04:04:40;1.40;;;1.30;;
64483;SDS011;50862;51.642;7.964;2022-07-12T04:07:09;1.67;;;1.10;;
64483;SDS011;50862;51.642;7.964;2022-07-12T04:09:37;3.60;;;1.17;;
64483;SDS011;50862;51.642;7.964;2022-07-12T04:12:07;1.40;;;1.30;;
64483;SDS011;50862;51.642;7.964;2022-07-12T04:14:36;1.47;;;1.27;;
64483;SDS011;50862;51.642;7.964;2022-07-12T04:17:04;2.10;;;1.23;;
64483;SDS011;50862;51.642;7.964;2022-07-12T04:19:33;1.60;;;1.13;;
64483;SDS011;50862;51.642;7.964;2022-07-12T04:22:01;2.50;;;1.20;;
64483;SDS011;50862;51.642;7.964;2022-07-12T04:24:29;3.17;;;1.20;;
64483;SDS011;50862;51.642;7.964;2022-07-12T04:26:59;1.13;;;1.03;;
64483;SDS011;50862;51.642;7.964;2022-07-12T04:29:29;1.53;;;1.10;;
64483;SDS011;50862;51.642;7.964;2022-07-12T04:31:57;1.17;;;1.07;;
64483;SDS011;50862;51.642;7.964;2022-07-12T04:34:25;1.10;;;1.00;;
64483;SDS011;50862;51.642;7.964;2022-07-12T04:36:53;1.43;;;1.33;;
64483;SDS011;50862;51.642;7.964;2022-07-12T04:39:22;1.33;;;1.20;;
64483;SDS011;50862;51.642;7.964;2022-07-12T04:41:50;3.47;;;1.20;;
64483;SDS011;50862;51.642;7.964;2022-07-12T04:44:18;1.20;;;1.10;;
64483;SDS011;50862;51.642;7.964;2022-07-12T04:46:48;1.33;;;1.23;;
64483;SDS011;50862;51.642;7.964;2022-07-12T04:49:16;1.10;;;1.10;;
64483;SDS011;50862;51.642;7.964;2022-07-12T04:51:45;4.17;;;1.10;;
64483;SDS011;50862;51.642;7.964;2022-07-12T04:54:13;2.97;;;1.27;;
64483;SDS011;50862;51.642;7.964;2022-07-12T04:56:42;1.27;;;1.17;;
64483;SDS011;50862;51.642;7.964;2022-07-12T04:59:10;2.80;;;1.40;;
64483;SDS011;50862;51.642;7.964;2022-07-12T05:01:39;1.93;;;1.40;;
64483;SDS011;50862;51.642;7.964;2022-07-12T05:04:08;2.27;;;1.53;;
64483;SDS011;50862;51.642;7.964;2022-07-12T05:06:36;2.13;;;1.40;;
64483;SDS011;50862;51.642;7.964;2022-07-12T05:09:05;4.30;;;1.57;;
64483;SDS011;50862;51.642;7.964;2022-07-12T05:11:33;2.87;;;1.87;;
64483;SDS011;50862;51.642;7.964;2022-07-12T05:14:01;2.40;;;2.20;;
64483;SDS011;50862;51.642;7.964;2022-07-12T05:16:30;3.40;;;2.25;;
64483;SDS011;50862;51.642;7.964;2022-07-12T05:18:59;2.33;;;2.13;;
64483;SDS011;50862;51.642;7.964;2022-07-12T05:21:29;4.20;;;2.28;;
64483;SDS011;50862;51.642;7.964;2022-07-12T05:24:00;3.15;;;2.50;;
64483;SDS011;50862;51.642;7.964;2022-07-12T05:26:30;2.80;;;2.03;;
64483;SDS011;50862;51.642;7.964;2022-07-12T05:28:58;1.67;;;1.58;;
64483;SDS011;50862;51.642;7.964;2022-07-12T05:31:26;1.95;;;1.80;;
64483;SDS011;50862;51.642;7.964;2022-07-12T05:33:54;1.83;;;1.70;;
64483;SDS011;50862;51.642;7.964;2022-07-12T05:36:23;2.35;;;1.30;;
64483;SDS011;50862;51.642;7.964;2022-07-12T05:38:53;1.50;;;1.40;;
64483;SDS011;50862;51.642;7.964;2022-07-12T05:41:21;1.40;;;1.30;;
64483;SDS011;50862;51.642;7.964;2022-07-12T05:43:49;1.63;;;1.52;;
64483;SDS011;50862;51.642;7.964;2022-07-12T05:46:17;1.50;;;1.40;;
64483;SDS011;50862;51.642;7.964;2022-07-12T05:48:46;1.73;;;1.63;;
64483;SDS011;50862;51.642;7.964;2022-07-12T05:51:14;1.42;;;1.33;;
64483;SDS011;50862;51.642;7.964;2022-07-12T05:54:01;1.25;;;1.20;;
64483;SDS011;50862;51.642;7.964;2022-07-12T05:56:30;1.17;;;1.10;;
64483;SDS011;50862;51.642;7.964;2022-07-12T05:58:58;1.63;;;1.52;;
64483;SDS011;50862;51.642;7.964;2022-07-12T06:01:26;2.55;;;1.70;;
64483;SDS011;50862;51.642;7.964;2022-07-12T06:03:55;2.55;;;1.77;;
64483;SDS011;50862;51.642;7.964;2022-07-12T06:06:23;2.60;;;1.77;;
64483;SDS011;50862;51.642;7.964;2022-07-12T06:08:51;2.03;;;1.90;;
64483;SDS011;50862;51.642;7.964;2022-07-12T06:11:20;1.70;;;1.40;;
64483;SDS011;50862;51.642;7.964;2022-07-12T06:13:49;2.20;;;2.00;;
64483;SDS011;50862;51.642;7.964;2022-07-12T06:16:17;3.00;;;2.08;;
64483;SDS011;50862;51.642;7.964;2022-07-12T06:18:45;3.75;;;2.00;;
64483;SDS011;50862;51.642;7.964;2022-07-12T06:21:13;1.58;;;1.48;;
64483;SDS011;50862;51.642;7.964;2022-07-12T06:23:41;2.65;;;1.98;;
64483;SDS011;50862;51.642;7.964;2022-07-12T06:26:09;2.20;;;2.00;;
64483;SDS011;50862;51.642;7.964;2022-07-12T06:28:39;1.80;;;1.70;;
64483;SDS011;50862;51.642;7.964;2022-07-12T06:31:07;2.53;;;1.80;;
64483;SDS011;50862;51.642;7.964;2022-07-12T06:33:35;2.40;;;2.20;;
64483;SDS011;50862;51.642;7.964;2022-07-12T06:36:04;1.73;;;1.63;;
64483;SDS011;50862;51.642;7.964;2022-07-12T06:38:32;4.00;;;2.40;;
64483;SDS011;50862;51.642;7.964;2022-07-12T06:41:09;4.32;;;1.90;;
64483;SDS011;50862;51.642;7.964;2022-07-12T06:43:38;4.90;;;2.42;;
64483;SDS011;50862;51.642;7.964;2022-07-12T06:46:06;1.80;;;1.70;;
64483;SDS011;50862;51.642;7.964;2022-07-12T06:48:35;2.00;;;1.90;;
64483;SDS011;50862;51.642;7.964;2022-07-12T06:51:03;3.03;;;1.90;;
64483;SDS011;50862;51.642;7.964;2022-07-12T06:53:31;3.92;;;2.05;;
64483;SDS011;50862;51.642;7.964;2022-07-12T06:56:00;2.97;;;1.55;;
64483;SDS011;50862;51.642;7.964;2022-07-12T06:58:28;2.50;;;1.75;;
64483;SDS011;50862;51.642;7.964;2022-07-12T07:00:57;2.13;;;1.92;;
64483;SDS011;50862;51.642;7.964;2022-07-12T07:03:25;3.00;;;1.63;;
64483;SDS011;50862;51.642;7.964;2022-07-12T07:05:53;2.05;;;1.90;;
64483;SDS011;50862;51.642;7.964;2022-07-12T07:08:21;1.80;;;1.60;;
64483;SDS011;50862;51.642;7.964;2022-07-12T07:10:50;3.28;;;1.90;;
64483;SDS011;50862;51.642;7.964;2022-07-12T07:13:19;1.83;;;1.63;;
64483;SDS011;50862;51.642;7.964;2022-07-12T07:15:47;2.55;;;1.90;;
64483;SDS011;50862;51.642;7.964;2022-07-12T07:18:17;2.08;;;1.80;;
64483;SDS011;50862;51.642;7.964;2022-07-12T07:20:45;1.80;;;1.70;;
64483;SDS011;50862;51.642;7.964;2022-07-12T07:23:13;1.88;;;1.73;;
64483;SDS011;50862;51.642;7.964;2022-07-12T07:25:43;1.98;;;1.80;;
64483;SDS011;50862;51.642;7.964;2022-07-12T07:28:11;1.73;;;1.63;;
64483;SDS011;50862;51.642;7.964;2022-07-12T07:30:44;1.67;;;1.58;;
64483;SDS011;50862;51.642;7.964;2022-07-12T07:33:22;2.17;;;1.70;;
64483;SDS011;50862;51.642;7.964;2022-07-12T07:35:52;2.90;;;1.75;;
64483;SDS011;50862;51.642;7.964;2022-07-12T07:38:20;1.90;;;1.80;;
64483;SDS011;50862;51.642;7.964;2022-07-12T07:40:48;2.42;;;1.73;;
64483;SDS011;50862;51.642;7.964;2022-07-12T07:43:16;3.05;;;1.63;;
64483;SDS011;50862;51.642;7.964;2022-07-12T07:45:45;2.83;;;1.75;;
64483;SDS011;50862;51.642;7.964;2022-07-12T07:48:13;2.80;;;1.75;;
64483;SDS011;50862;51.642;7.964;2022-07-12T07:50:52;1.77;;;1.38;;
64483;SDS011;50862;51.642;7.964;2022-07-12T07:53:21;3.03;;;1.60;;
64483;SDS011;50862;51.642;7.964;2022-07-12T07:55:50;1.50;;;1.40;;
64483;SDS011;50862;51.642;7.964;2022-07-12T07:58:18;2.33;;;2.13;;
64483;SDS011;50862;51.642;7.964;2022-07-12T08:00:49;2.30;;;1.73;;
64483;SDS011;50862;51.642;7.964;2022-07-12T08:03:17;2.92;;;1.55;;
64483;SDS011;50862;51.642;7.964;2022-07-12T08:05:46;1.50;;;1.40;;
64483;SDS011;50862;51.642;7.964;2022-07-12T08:08:16;1.00;;;1.00;;
64483;SDS011;50862;51.642;7.964;2022-07-12T08:10:44;2.17;;;1.20;;
64483;SDS011;50862;51.642;7.964;2022-07-12T08:13:12;1.63;;;1.30;;
64483;SDS011;50862;51.642;7.964;2022-07-12T08:15:40;1.52;;;1.38;;
64483;SDS011;50862;51.642;7.964;2022-07-12T08:18:08;1.20;;;1.20;;
64483;SDS011;50862;51.642;7.964;2022-07-12T08:20:36;1.42;;;1.33;;
64483;SDS011;50862;51.642;7.964;2022-07-12T08:23:15;1.52;;;1.40;;
64483;SDS011;50862;51.642;7.964;2022-07-12T08:25:43;1.00;;;1.00;;
64483;SDS011;50862;51.642;7.964;2022-07-12T08:28:11;3.15;;;1.10;;
64483;SDS011;50862;51.642;7.964;2022-07-12T08:30:40;1.35;;;1.17;;
64483;SDS011;50862;51.642;7.964;2022-07-12T08:33:12;1.60;;;1.45;;
64483;SDS011;50862;51.642;7.964;2022-07-12T08:35:41;1.40;;;1.30;;
64483;SDS011;50862;51.642;7.964;2022-07-12T08:38:10;1.95;;;1.00;;
64483;SDS011;50862;51.642;7.964;2022-07-12T08:40:40;1.55;;;1.45;;
64483;SDS011;50862;51.642;7.964;2022-07-12T08:43:08;1.33;;;1.23;;
64483;SDS011;50862;51.642;7.964;2022-07-12T08:45:36;1.27;;;1.17;;
64483;SDS011;50862;51.642;7.964;2022-07-12T08:48:07;2.63;;;1.30;;
64483;SDS011;50862;51.642;7.964;2022-07-12T08:50:35;1.15;;;1.10;;
64483;SDS011;50862;51.642;7.964;2022-07-12T08:53:10;1.08;;;1.08;;
64483;SDS011;50862;51.642;7.964;2022-07-12T08:55:41;1.10;;;1.02;;
64483;SDS011;50862;51.642;7.964;2022-07-12T08:58:15;2.05;;;0.80;;
64483;SDS011;50862;51.642;7.964;2022-07-12T09:00:45;1.13;;;1.02;;
64483;SDS011;50862;51.642;7.964;2022-07-12T09:03:15;2.10;;;1.23;;
64483;SDS011;50862;51.642;7.964;2022-07-12T09:05:47;0.88;;;0.88;;
64483;SDS011;50862;51.642;7.964;2022-07-12T09:08:18;1.63;;;1.10;;
64483;SDS011;50862;51.642;7.964;2022-07-12T09:10:54;1.08;;;0.98;;
64483;SDS011;50862;51.642;7.964;2022-07-12T09:16:14;0.93;;;0.90;;
64483;SDS011;50862;51.642;7.964;2022-07-12T09:18:43;1.00;;;1.00;;
64483;SDS011;50862;51.642;7.964;2022-07-12T09:21:24;1.02;;;1.02;;
64483;SDS011;50862;51.642;7.964;2022-07-12T09:23:54;1.15;;;1.08;;
64483;SDS011;50862;51.642;7.964;2022-07-12T09:26:27;1.15;;;1.15;;
64483;SDS011;50862;51.642;7.964;2022-07-12T09:29:04;0.80;;;0.75;;
64483;SDS011;50862;51.642;7.964;2022-07-12T09:31:40;1.75;;;1.20;;
64483;SDS011;50862;51.642;7.964;2022-07-12T09:34:30;1.23;;;1.13;;
64483;SDS011;50862;51.642;7.964;2022-07-12T09:37:16;1.27;;;0.77;;
64483;SDS011;50862;51.642;7.964;2022-07-12T09:39:45;0.93;;;0.82;;
64483;SDS011;50862;51.642;7.964;2022-07-12T09:42:14;1.00;;;1.00;;
64483;SDS011;50862;51.642;7.964;2022-07-12T09:44:42;0.88;;;0.88;;
64483;SDS011;50862;51.642;7.964;2022-07-12T09:47:11;0.75;;;0.75;;
64483;SDS011;50862;51.642;7.964;2022-07-12T09:49:42;0.80;;;0.80;;
64483;SDS011;50862;51.642;7.964;2022-07-12T09:52:12;1.60;;;0.80;;
64483;SDS011;50862;51.642;7.964;2022-07-12T09:54:43;1.55;;;0.60;;
64483;SDS011;50862;51.642;7.964;2022-07-12T09:57:16;1.00;;;1.00;;
64483;SDS011;50862;51.642;7.964;2022-07-12T09:59:49;1.13;;;0.70;;
64483;SDS011;50862;51.642;7.964;2022-07-12T10:02:18;0.70;;;0.70;;
64483;SDS011;50862;51.642;7.964;2022-07-12T10:04:49;1.08;;;0.63;;
64483;SDS011;50862;51.642;7.964;2022-07-12T10:07:17;2.05;;;0.60;;
64483;SDS011;50862;51.642;7.964;2022-07-12T10:09:47;0.98;;;0.60;;
64483;SDS011;50862;51.642;7.964;2022-07-12T10:12:19;0.60;;;0.60;;
64483;SDS011;50862;51.642;7.964;2022-07-12T10:14:48;0.70;;;0.70;;
64483;SDS011;50862;51.642;7.964;2022-07-12T10:17:23;0.60;;;0.60;;
64483;SDS011;50862;51.642;7.964;2022-07-12T10:22:43;0.70;;;0.70;;
64483;SDS011;50862;51.642;7.964;2022-07-12T10:25:31;0.70;;;0.70;;
64483;SDS011;50862;51.642;7.964;2022-07-12T10:28:01;0.50;;;0.50;;
64483;SDS011;50862;51.642;7.964;2022-07-12T10:30:30;3.05;;;0.70;;
64483;SDS011;50862;51.642;7.964;2022-07-12T10:33:14;0.80;;;0.50;;
64483;SDS011;50862;51.642;7.964;2022-07-12T10:35:57;2.60;;;0.85;;
64483;SDS011;50862;51.642;7.964;2022-07-12T10:38:25;0.70;;;0.70;;
64483;SDS011;50862;51.642;7.964;2022-07-12T10:40:54;0.85;;;0.70;;
64483;SDS011;50862;51.642;7.964;2022-07-12T10:43:32;0.75;;;0.75;;
64483;SDS011;50862;51.642;7.964;2022-07-12T10:46:19;0.55;;;0.55;;
64483;SDS011;50862;51.642;7.964;2022-07-12T10:54:41;0.80;;;0.50;;
64483;SDS011;50862;51.642;7.964;2022-07-12T10:57:16;0.60;;;0.60;;
64483;SDS011;50862;51.642;7.964;2022-07-12T11:00:06;1.20;;;0.63;;
64483;SDS011;50862;51.642;7.964;2022-07-12T11:02:36;0.90;;;0.70;;
64483;SDS011;50862;51.642;7.964;2022-07-12T11:05:04;0.50;;;0.50;;
64483;SDS011;50862;51.642;7.964;2022-07-12T11:07:32;0.60;;;0.60;;
64483;SDS011;50862;51.642;7.964;2022-07-12T11:10:01;0.40;;;0.40;;
64483;SDS011;50862;51.642;7.964;2022-07-12T11:12:31;0.22;;;0.22;;
64483;SDS011;50862;51.642;7.964;2022-07-12T11:15:00;1.08;;;0.60;;
64483;SDS011;50862;51.642;7.964;2022-07-12T11:17:32;0.47;;;0.47;;
64483;SDS011;50862;51.642;7.964;2022-07-12T11:20:07;1.58;;;0.45;;
64483;SDS011;50862;51.642;7.964;2022-07-12T11:22:37;0.20;;;0.20;;
64483;SDS011;50862;51.642;7.964;2022-07-12T11:25:07;1.60;;;0.40;;
64483;SDS011;50862;51.642;7.964;2022-07-12T11:27:38;0.40;;;0.40;;
64483;SDS011;50862;51.642;7.964;2022-07-12T11:30:06;0.40;;;0.40;;
64483;SDS011;50862;51.642;7.964;2022-07-12T11:32:38;1.55;;;0.40;;
64483;SDS011;50862;51.642;7.964;2022-07-12T11:35:19;0.38;;;0.38;;
64483;SDS011;50862;51.642;7.964;2022-07-12T11:37:49;1.27;;;0.30;;
64483;SDS011;50862;51.642;7.964;2022-07-12T11:40:21;0.43;;;0.40;;
64483;SDS011;50862;51.642;7.964;2022-07-12T11:42:54;1.58;;;0.40;;
64483;SDS011;50862;51.642;7.964;2022-07-12T11:45:25;0.38;;;0.38;;
64483;SDS011;50862;51.642;7.964;2022-07-12T11:47:56;0.30;;;0.30;;
64483;SDS011;50862;51.642;7.964;2022-07-12T11:50:25;0.30;;;0.30;;
64483;SDS011;50862;51.642;7.964;2022-07-12T11:53:00;0.40;;;0.40;;
64483;SDS011;50862;51.642;7.964;2022-07-12T11:55:30;0.55;;;0.30;;
64483;SDS011;50862;51.642;7.964;2022-07-12T11:58:04;0.40;;;0.40;;
64483;SDS011;50862;51.642;7.964;2022-07-12T12:00:33;0.43;;;0.43;;
64483;SDS011;50862;51.642;7.964;2022-07-12T12:03:03;0.90;;;0.30;;
64483;SDS011;50862;51.642;7.964;2022-07-12T12:05:31;0.43;;;0.40;;
64483;SDS011;50862;51.642;7.964;2022-07-12T12:08:00;0.30;;;0.30;;
64483;SDS011;50862;51.642;7.964;2022-07-12T12:10:29;0.40;;;0.40;;
64483;SDS011;50862;51.642;7.964;2022-07-12T12:12:58;0.30;;;0.30;;
64483;SDS011;50862;51.642;7.964;2022-07-12T12:15:28;0.45;;;0.30;;
64483;SDS011;50862;51.642;7.964;2022-07-12T12:17:59;0.40;;;0.40;;
64483;SDS011;50862;51.642;7.964;2022-07-12T12:20:30;0.32;;;0.32;;
64483;SDS011;50862;51.642;7.964;2022-07-12T12:22:59;3.75;;;0.60;;
64483;SDS011;50862;51.642;7.964;2022-07-12T12:25:29;0.30;;;0.30;;
64483;SDS011;50862;51.642;7.964;2022-07-12T12:27:58;0.65;;;0.40;;
64483;SDS011;50862;51.642;7.964;2022-07-12T12:30:49;0.35;;;0.35;;
64483;SDS011;50862;51.642;7.964;2022-07-12T12:33:34;0.90;;;0.30;;
64483;SDS011;50862;51.642;7.964;2022-07-12T12:36:18;0.63;;;0.28;;
64483;SDS011;50862;51.642;7.964;2022-07-12T12:38:48;1.70;;;0.40;;
64483;SDS011;50862;51.642;7.964;2022-07-12T12:41:18;0.93;;;0.30;;
64483;SDS011;50862;51.642;7.964;2022-07-12T12:43:56;0.65;;;0.30;;
64483;SDS011;50862;51.642;7.964;2022-07-12T12:46:44;0.40;;;0.40;;
64483;SDS011;50862;51.642;7.964;2022-07-12T12:49:13;0.35;;;0.35;;
64483;SDS011;50862;51.642;7.964;2022-07-12T12:51:52;4.57;;;0.50;;
64483;SDS011;50862;51.642;7.964;2022-07-12T12:54:31;0.55;;;0.40;;
64483;SDS011;50862;51.642;7.964;2022-07-12T12:57:00;1.38;;;0.50;;
64483;SDS011;50862;51.642;7.964;2022-07-12T12:59:29;0.75;;;0.50;;
64483;SDS011;50862;51.642;7.964;2022-07-12T13:01:57;0.30;;;0.30;;
64483;SDS011;50862;51.642;7.964;2022-07-12T13:04:27;0.30;;;0.30;;
64483;SDS011;50862;51.642;7.964;2022-07-12T13:06:58;0.45;;;0.45;;
64483;SDS011;50862;51.642;7.964;2022-07-12T13:09:32;0.50;;;0.45;;
64483;SDS011;50862;51.642;7.964;2022-07-12T13:12:01;0.30;;;0.30;;
64483;SDS011;50862;51.642;7.964;2022-07-12T13:14:30;0.80;;;0.40;;
64483;SDS011;50862;51.642;7.964;2022-07-12T13:16:58;0.55;;;0.20;;
64483;SDS011;50862;51.642;7.964;2022-07-12T13:19:27;0.70;;;0.50;;
64483;SDS011;50862;51.642;7.964;2022-07-12T13:21:55;0.88;;;0.40;;
64483;SDS011;50862;51.642;7.964;2022-07-12T13:24:24;0.32;;;0.32;;
64483;SDS011;50862;51.642;7.964;2022-07-12T13:26:52;0.20;;;0.20;;
64483;SDS011;50862;51.642;7.964;2022-07-12T13:29:21;0.30;;;0.30;;
64483;SDS011;50862;51.642;7.964;2022-07-12T13:31:49;0.30;;;0.30;;
64483;SDS011;50862;51.642;7.964;2022-07-12T13:34:22;0.45;;;0.38;;
64483;SDS011;50862;51.642;7.964;2022-07-12T13:36:50;0.40;;;0.40;;
64483;SDS011;50862;51.642;7.964;2022-07-12T13:39:19;0.95;;;0.85;;
64483;SDS011;50862;51.642;7.964;2022-07-12T13:42:06;0.60;;;0.30;;
64483;SDS011;50862;51.642;7.964;2022-07-12T13:44:34;1.65;;;0.32;;
64483;SDS011;50862;51.642;7.964;2022-07-12T13:47:02;0.30;;;0.30;;
64483;SDS011;50862;51.642;7.964;2022-07-12T13:49:31;0.50;;;0.50;;
64483;SDS011;50862;51.642;7.964;2022-07-12T13:51:59;0.55;;;0.40;;
64483;SDS011;50862;51.642;7.964;2022-07-12T13:54:27;0.68;;;0.57;;
64483;SDS011;50862;51.642;7.964;2022-07-12T13:56:56;0.40;;;0.40;;
64483;SDS011;50862;51.642;7.964;2022-07-12T13:59:25;1.33;;;0.40;;
64483;SDS011;50862;51.642;7.964;2022-07-12T14:01:54;0.32;;;0.32;;
64483;SDS011;50862;51.642;7.964;2022-07-12T14:04:22;0.30;;;0.30;;
64483;SDS011;50862;51.642;7.964;2022-07-12T14:06:50;0.32;;;0.32;;
64483;SDS011;50862;51.642;7.964;2022-07-12T14:09:18;1.02;;;0.40;;
64483;SDS011;50862;51.642;7.964;2022-07-12T14:11:46;0.50;;;0.50;;
64483;SDS011;50862;51.642;7.964;2022-07-12T14:14:14;0.30;;;0.30;;
64483;SDS011;50862;51.642;7.964;2022-07-12T14:16:45;0.30;;;0.30;;
64483;SDS011;50862;51.642;7.964;2022-07-12T14:19:13;0.45;;;0.30;;
64483;SDS011;50862;51.642;7.964;2022-07-12T14:21:42;1.23;;;0.40;;
64483;SDS011;50862;51.642;7.964;2022-07-12T14:24:10;0.63;;;0.30;;
64483;SDS011;50862;51.642;7.964;2022-07-12T14:26:38;1.38;;;0.43;;
64483;SDS011;50862;51.642;7.964;2022-07-12T14:29:06;1.92;;;0.50;;
64483;SDS011;50862;51.642;7.964;2022-07-12T14:31:34;0.38;;;0.35;;
64483;SDS011;50862;51.642;7.964;2022-07-12T14:34:04;0.40;;;0.40;;
64483;SDS011;50862;51.642;7.964;2022-07-12T14:36:32;0.40;;;0.40;;
64483;SDS011;50862;51.642;7.964;2022-07-12T14:39:01;0.30;;;0.30;;
64483;SDS011;50862;51.642;7.964;2022-07-12T14:41:29;0.20;;;0.20;;
64483;SDS011;50862;51.642;7.964;2022-07-12T14:43:57;0.35;;;0.35;;
64483;SDS011;50862;51.642;7.964;2022-07-12T14:46:26;1.42;;;0.45;;
64483;SDS011;50862;51.642;7.964;2022-07-12T14:48:54;1.85;;;0.63;;
64483;SDS011;50862;51.642;7.964;2022-07-12T14:51:24;3.40;;;0.50;;
64483;SDS011;50862;51.642;7.964;2022-07-12T14:53:52;0.20;;;0.20;;
64483;SDS011;50862;51.642;7.964;2022-07-12T14:56:20;0.32;;;0.32;;
64483;SDS011;50862;51.642;7.964;2022-07-12T14:58:49;0.40;;;0.40;;
64483;SDS011;50862;51.642;7.964;2022-07-12T15:01:17;0.22;;;0.20;;
64483;SDS011;50862;51.642;7.964;2022-07-12T15:03:46;0.55;;;0.30;;
64483;SDS011;50862;51.642;7.964;2022-07-12T15:06:14;0.40;;;0.32;;
64483;SDS011;50862;51.642;7.964;2022-07-12T15:08:44;0.68;;;0.28;;
64483;SDS011;50862;51.642;7.964;2022-07-12T15:11:18;0.75;;;0.57;;
64483;SDS011;50862;51.642;7.964;2022-07-12T15:13:47;0.30;;;0.30;;
64483;SDS011;50862;51.642;7.964;2022-07-12T15:16:15;1.70;;;0.30;;